Time;durP1;ratioP1;P1;durP2;ratioP2;P2;SDS_P1;SDS_P2;PMS_P1;PMS_P2;Temp;Humidity;BMP_temperature;BMP_pressure;BME280_temperature;BME280_humidity;BME280_pressure;Samples;Min_cycle;Max_cycle;Signal;HPM_P1;HPM_P2
2024/03/05 00:00:10;;;;;;;28.00;17.77;;;10.00;99.90;;;;;;5060857;28;20444;-82
2024/03/05 00:02:40;;;;;;;26.97;17.97;;;10.10;99.90;;;;;;5058179;28;20460;-84
2024/03/05 00:05:12;;;;;;;27.83;18.53;;;10.00;99.90;;;;;;5058131;28;20519;-83
2024/03/05 00:07:41;;;;;;;30.23;20.07;;;10.00;99.90;;;;;;5062715;28;20462;-84
2024/03/05 00:10:09;;;;;;;26.53;17.77;;;10.00;99.90;;;;;;5060634;28;20459;-82
2024/03/05 00:12:38;;;;;;;28.30;19.53;;;10.00;99.90;;;;;;5062437;28;20451;-84
2024/03/05 00:15:06;;;;;;;28.73;17.90;;;10.00;99.90;;;;;;5057700;28;21146;-83
2024/03/05 00:17:36;;;;;;;26.27;17.83;;;10.00;99.90;;;;;;5060731;28;20499;-84
2024/03/05 00:20:16;;;;;;;29.97;18.70;;;10.10;99.90;;;;;;5063424;28;20497;-82
2024/03/05 00:22:44;;;;;;;29.70;17.83;;;10.00;99.90;;;;;;5056753;28;20504;-83
2024/03/05 00:25:12;;;;;;;29.13;18.13;;;9.90;99.90;;;;;;5060581;28;20502;-83
2024/03/05 00:27:41;;;;;;;24.97;17.90;;;9.90;99.90;;;;;;5061594;28;20462;-82
2024/03/05 00:30:12;;;;;;;25.80;18.73;;;9.90;99.90;;;;;;5059706;28;20459;-82
2024/03/05 00:32:40;;;;;;;25.27;17.60;;;9.90;99.90;;;;;;5059560;28;20572;-82
2024/03/05 00:35:10;;;;;;;30.10;18.50;;;10.00;99.90;;;;;;5056182;28;20478;-81
2024/03/05 00:37:38;;;;;;;28.17;17.40;;;10.00;99.90;;;;;;5060130;28;20537;-83
2024/03/05 00:40:09;;;;;;;31.33;19.37;;;10.00;99.90;;;;;;5056496;28;20450;-81
2024/03/05 00:42:38;;;;;;;27.20;16.83;;;10.00;99.90;;;;;;5058578;28;20450;-80
2024/03/05 00:45:07;;;;;;;28.97;18.00;;;10.00;99.90;;;;;;5058975;28;20436;-84
2024/03/05 00:47:36;;;;;;;26.70;18.00;;;9.90;99.90;;;;;;5062385;28;21223;-83
2024/03/05 00:50:06;;;;;;;21.70;16.97;;;9.90;99.90;;;;;;5062321;28;20957;-82
2024/03/05 00:52:37;;;;;;;27.43;17.30;;;9.90;99.90;;;;;;5067287;28;20453;-83
2024/03/05 00:55:07;;;;;;;31.03;19.37;;;9.90;99.90;;;;;;5068128;28;20485;-83
2024/03/05 00:57:37;;;;;;;25.87;17.77;;;9.90;99.90;;;;;;5066865;28;20466;-82
2024/03/05 01:00:07;;;;;;;26.67;16.70;;;9.90;99.90;;;;;;5066718;28;20462;-83
2024/03/05 01:02:36;;;;;;;28.00;18.00;;;9.90;99.90;;;;;;5063984;28;20482;-81
2024/03/05 01:05:09;;;;;;;24.37;17.23;;;9.90;99.90;;;;;;5062516;28;20440;-83
2024/03/05 01:07:39;;;;;;;27.20;17.63;;;9.90;99.90;;;;;;5065363;28;20496;-81
2024/03/05 01:10:09;;;;;;;27.33;18.43;;;9.90;99.90;;;;;;5062559;28;20445;-82
2024/03/05 01:12:38;;;;;;;25.23;17.30;;;9.90;99.90;;;;;;5061771;28;20470;-82
2024/03/05 01:15:07;;;;;;;27.00;18.20;;;9.90;99.90;;;;;;5062216;28;21075;-83
2024/03/05 01:17:35;;;;;;;26.90;18.47;;;9.90;99.90;;;;;;5059883;28;20467;-82
2024/03/05 01:20:04;;;;;;;28.87;18.47;;;10.00;99.90;;;;;;5064590;28;20451;-82
2024/03/05 01:22:32;;;;;;;27.47;18.67;;;9.90;99.90;;;;;;5056901;28;20562;-83
2024/03/05 01:25:02;;;;;;;28.57;17.80;;;9.90;99.90;;;;;;5061462;28;20446;-82
2024/03/05 01:27:30;;;;;;;29.23;18.67;;;9.80;99.90;;;;;;5060557;28;20486;-82
2024/03/05 01:29:59;;;;;;;24.97;17.23;;;9.80;99.90;;;;;;5057915;28;20952;-82
2024/03/05 01:32:29;;;;;;;28.10;17.60;;;9.90;99.90;;;;;;5064263;28;20448;-82
2024/03/05 01:34:57;;;;;;;26.53;18.17;;;9.90;99.90;;;;;;5061117;28;20495;-83
2024/03/05 01:37:26;;;;;;;26.73;17.77;;;9.90;99.90;;;;;;5059046;28;20489;-83
2024/03/05 01:39:54;;;;;;;30.43;20.17;;;9.90;99.90;;;;;;5060831;28;20482;-83
2024/03/05 01:42:24;;;;;;;24.33;17.50;;;9.90;1.00;;;;;;5060055;28;20546;-83
2024/03/05 01:44:52;;;;;;;26.37;17.90;;;9.90;99.90;;;;;;5058966;28;20450;-84
2024/03/05 01:47:21;;;;;;;30.90;17.00;;;10.00;99.90;;;;;;5057402;28;20466;-82
2024/03/05 01:49:49;;;;;;;26.00;17.80;;;9.90;99.90;;;;;;5057451;28;20597;-83
2024/03/05 01:52:18;;;;;;;32.70;19.33;;;9.90;99.90;;;;;;5055007;28;20439;-84
2024/03/05 01:54:47;;;;;;;31.43;17.80;;;9.90;99.90;;;;;;5060614;28;20524;-83
2024/03/05 01:57:15;;;;;;;27.70;18.03;;;9.90;1.00;;;;;;5060806;28;21439;-82
2024/03/05 01:59:45;;;;;;;26.53;18.63;;;9.90;1.00;;;;;;5058970;28;20454;-83
2024/03/05 02:02:13;;;;;;;28.63;18.03;;;10.00;1.00;;;;;;5057787;28;20524;-81
2024/03/05 02:04:44;;;;;;;26.27;18.47;;;10.00;1.00;;;;;;5059133;28;20856;-81
2024/03/05 02:07:12;;;;;;;27.57;19.10;;;9.90;1.00;;;;;;5058138;28;20460;-81
2024/03/05 02:09:41;;;;;;;27.77;18.90;;;9.90;1.00;;;;;;5060405;28;20451;-81
2024/03/05 02:12:09;;;;;;;25.83;18.07;;;9.90;1.00;;;;;;5056760;28;20443;-82
2024/03/05 02:14:37;;;;;;;30.10;19.43;;;9.90;1.00;;;;;;5059680;28;20444;-83
2024/03/05 02:17:10;;;;;;;30.27;17.87;;;9.90;1.00;;;;;;5059945;28;20522;-83
2024/03/05 02:19:38;;;;;;;25.03;17.20;;;9.90;1.00;;;;;;5057016;28;20450;-83
2024/03/05 02:22:09;;;;;;;27.83;17.10;;;9.80;1.00;;;;;;5058809;28;20447;-83
2024/03/05 02:24:38;;;;;;;29.80;18.10;;;9.80;1.00;;;;;;5055446;28;20436;-82
2024/03/05 02:27:07;;;;;;;25.87;17.53;;;9.80;1.00;;;;;;5058155;28;20502;-83
2024/03/05 02:29:42;;;;;;;27.07;17.70;;;9.70;5.20;;;;;;5062152;28;20457;-82
2024/03/05 02:32:12;;;;;;;24.97;19.33;;;9.80;1.00;;;;;;5060391;28;20441;-83
2024/03/05 02:34:41;;;;;;;34.03;18.80;;;9.80;1.00;;;;;;5060047;28;20440;-82
2024/03/05 02:37:12;;;;;;;26.47;17.20;;;9.80;1.00;;;;;;5054367;28;20583;-83
2024/03/05 02:39:42;;;;;;;29.03;20.43;;;9.70;1.00;;;;;;5057918;28;21270;-83
2024/03/05 02:42:11;;;;;;;27.00;17.67;;;9.70;1.00;;;;;;5060836;28;20474;-82
2024/03/05 02:44:39;;;;;;;26.23;16.37;;;9.60;1.00;;;;;;5061267;28;20450;-82
2024/03/05 02:47:08;;;;;;;29.10;19.30;;;9.60;1.00;;;;;;5063123;28;20466;-83
2024/03/05 02:49:36;;;;;;;30.37;20.20;;;9.60;1.00;;;;;;5062459;28;21087;-83
2024/03/05 02:52:05;;;;;;;29.33;19.20;;;9.60;65.90;;;;;;5060680;28;20470;-83
2024/03/05 02:54:35;;;;;;;27.10;18.10;;;9.50;99.90;;;;;;5060135;28;20812;-84
2024/03/05 02:57:03;;;;;;;29.27;19.17;;;9.40;99.90;;;;;;5063280;28;20513;-83
2024/03/05 02:59:31;;;;;;;28.53;18.70;;;9.40;99.90;;;;;;5063549;28;20478;-81
2024/03/05 03:02:00;;;;;;;30.20;18.50;;;9.40;99.90;;;;;;5059686;28;20454;-82
2024/03/05 03:04:29;;;;;;;29.37;17.97;;;9.40;1.00;;;;;;5062013;28;20455;-84
2024/03/05 03:06:58;;;;;;;31.67;20.00;;;9.40;99.90;;;;;;5061506;28;20642;-82
2024/03/05 03:09:26;;;;;;;30.40;19.03;;;9.50;99.90;;;;;;5061061;28;20451;-83
2024/03/05 03:11:56;;;;;;;27.20;18.03;;;9.40;99.90;;;;;;5062321;28;20484;-83
2024/03/05 03:14:25;;;;;;;29.27;17.60;;;9.50;99.90;;;;;;5059117;28;20483;-82
2024/03/05 03:16:54;;;;;;;27.80;18.33;;;9.50;99.90;;;;;;5062676;28;20486;-81
2024/03/05 03:19:22;;;;;;;29.00;18.30;;;9.60;99.90;;;;;;5061654;28;21016;-83
2024/03/05 03:21:51;;;;;;;28.50;18.93;;;9.60;99.90;;;;;;5061495;28;20464;-83
2024/03/05 03:24:19;;;;;;;28.70;17.80;;;9.60;99.90;;;;;;5060219;28;20463;-83
2024/03/05 03:26:48;;;;;;;32.00;20.13;;;9.60;99.90;;;;;;5064479;28;20510;-81
2024/03/05 03:29:18;;;;;;;31.03;18.67;;;9.60;30.00;;;;;;5063201;28;20444;-82
2024/03/05 03:31:47;;;;;;;28.70;19.17;;;9.60;73.90;;;;;;5060481;28;20978;-83
2024/03/05 03:34:16;;;;;;;26.73;18.30;;;9.70;26.60;;;;;;5061301;28;20486;-84
2024/03/05 03:36:45;;;;;;;29.40;18.60;;;9.70;1.00;;;;;;5060553;28;20470;-84
2024/03/05 03:39:23;;;;;;;30.80;20.40;;;9.70;1.00;;;;;;5062326;28;20455;-83
2024/03/05 03:41:54;;;;;;;29.83;18.50;;;9.70;1.00;;;;;;5065221;28;20444;-84
2024/03/05 03:44:24;;;;;;;28.67;19.23;;;9.70;1.00;;;;;;5060357;28;20479;-85
2024/03/05 03:46:53;;;;;;;29.80;18.67;;;9.70;1.00;;;;;;5061771;28;20470;-83
2024/03/05 03:49:23;;;;;;;30.23;19.93;;;9.70;1.00;;;;;;5061687;28;20855;-84
2024/03/05 03:51:53;;;;;;;32.40;19.60;;;9.70;5.40;;;;;;5061328;28;20451;-84
2024/03/05 03:54:22;;;;;;;32.57;18.97;;;9.60;20.90;;;;;;5059921;28;20455;-83
2024/03/05 03:56:51;;;;;;;29.60;19.10;;;9.60;99.90;;;;;;5061944;28;20506;-83
2024/03/05 03:59:20;;;;;;;33.83;20.07;;;9.60;99.90;;;;;;5058856;28;20498;-83
2024/03/05 04:01:50;;;;;;;29.30;18.67;;;9.70;99.90;;;;;;5057847;28;20458;-82
2024/03/05 04:04:19;;;;;;;37.80;20.70;;;9.60;99.90;;;;;;5063578;28;20473;-84
2024/03/05 04:06:47;;;;;;;31.83;20.67;;;9.60;99.90;;;;;;5058147;28;20532;-84
2024/03/05 04:09:16;;;;;;;32.80;21.57;;;9.70;99.90;;;;;;5060594;28;20451;-83
2024/03/05 04:11:46;;;;;;;37.20;22.37;;;9.70;99.90;;;;;;5062979;28;20451;-82
2024/03/05 04:14:15;;;;;;;34.63;22.50;;;9.60;99.90;;;;;;5063691;28;20451;-83
2024/03/05 04:16:43;;;;;;;28.37;19.60;;;9.60;99.90;;;;;;5061301;28;20477;-84
2024/03/05 04:19:13;;;;;;;39.33;22.80;;;9.60;99.90;;;;;;5060962;28;20447;-83
2024/03/05 04:21:42;;;;;;;35.37;21.30;;;9.50;1.00;;;;;;5062254;28;20435;-83
2024/03/05 04:24:11;;;;;;;34.17;21.27;;;9.50;99.90;;;;;;5062637;28;20479;-84
2024/03/05 04:26:39;;;;;;;31.17;20.77;;;9.50;1.00;;;;;;5063836;28;20473;-83
2024/03/05 04:29:09;;;;;;;30.70;21.20;;;9.60;99.90;;;;;;5065986;28;20470;-84
2024/03/05 04:31:39;;;;;;;31.90;21.03;;;9.60;99.90;;;;;;5065310;28;20460;-84
2024/03/05 04:34:19;;;;;;;35.70;20.67;;;9.60;99.90;;;;;;5063943;28;20448;-82
2024/03/05 04:36:50;;;;;;;30.10;21.87;;;9.60;99.90;;;;;;5063455;28;20480;-84
2024/03/05 04:39:20;;;;;;;32.80;22.33;;;9.60;99.90;;;;;;5064302;28;20450;-84
2024/03/05 04:41:49;;;;;;;31.20;19.60;;;9.50;99.90;;;;;;5056110;28;20993;-80
2024/03/05 04:44:17;;;;;;;31.33;21.27;;;9.50;1.00;;;;;;5054959;28;20438;-78
2024/03/05 04:46:45;;;;;;;36.07;22.90;;;9.50;99.90;;;;;;5055132;28;20931;-79
2024/03/05 04:49:13;;;;;;;31.93;20.70;;;9.50;99.90;;;;;;5064390;28;20454;-82
2024/03/05 04:51:43;;;;;;;34.77;22.37;;;9.50;1.00;;;;;;5061561;28;20518;-81
2024/03/05 04:54:12;;;;;;;32.57;23.00;;;9.40;1.00;;;;;;5061791;28;20545;-82
2024/03/05 04:56:40;;;;;;;33.90;21.70;;;9.50;1.00;;;;;;5062994;28;20472;-83
2024/03/05 04:59:09;;;;;;;34.90;22.57;;;9.50;1.00;;;;;;5059328;28;20444;-83
2024/03/05 05:01:37;;;;;;;35.37;20.87;;;9.50;1.00;;;;;;5058141;28;20458;-83
2024/03/05 05:04:06;;;;;;;34.90;21.03;;;9.50;1.00;;;;;;5064580;28;20521;-82
2024/03/05 05:06:34;;;;;;;34.90;21.27;;;9.50;1.00;;;;;;5064020;28;20477;-83
2024/03/05 05:09:07;;;;;;;34.40;23.07;;;9.60;1.00;;;;;;5060811;28;20448;-83
2024/03/05 05:11:36;;;;;;;33.63;21.50;;;9.60;1.00;;;;;;5062625;28;20464;-84
2024/03/05 05:14:05;;;;;;;38.00;22.30;;;9.60;1.00;;;;;;5063876;28;21076;-82
2024/03/05 05:16:34;;;;;;;34.10;21.30;;;9.60;99.90;;;;;;5061998;28;20475;-81
2024/03/05 05:19:04;;;;;;;33.47;22.30;;;9.60;1.00;;;;;;5058770;28;20496;-82
2024/03/05 05:21:34;;;;;;;32.00;21.03;;;9.60;1.00;;;;;;5061692;28;20468;-82
2024/03/05 05:24:04;;;;;;;28.80;20.57;;;9.60;1.00;;;;;;5059652;28;20448;-83
2024/03/05 05:26:32;;;;;;;30.60;19.40;;;9.60;99.90;;;;;;5062721;28;20483;-82
2024/03/05 05:29:00;;;;;;;35.97;21.90;;;9.70;99.90;;;;;;5060056;28;20467;-83
2024/03/05 05:31:29;;;;;;;31.43;20.53;;;9.70;99.90;;;;;;5059753;28;20450;-83
2024/03/05 05:33:57;;;;;;;33.80;20.27;;;9.70;99.90;;;;;;5059266;28;20443;-80
2024/03/05 05:36:26;;;;;;;33.53;20.10;;;9.70;99.90;;;;;;5053346;28;20533;-81
2024/03/05 05:38:54;;;;;;;28.47;19.60;;;9.70;99.90;;;;;;5054060;28;20474;-78
2024/03/05 05:41:23;;;;;;;33.10;20.30;;;9.70;99.90;;;;;;5054711;28;20444;-79
2024/03/05 05:43:52;;;;;;;29.63;18.87;;;9.70;99.90;;;;;;5051522;28;20911;-80
2024/03/05 05:46:22;;;;;;;32.23;20.13;;;9.70;99.90;;;;;;5054980;28;21249;-82
2024/03/05 05:48:52;;;;;;;28.90;18.47;;;9.70;28.80;;;;;;5054733;28;20562;-79
2024/03/05 05:51:22;;;;;;;37.20;20.77;;;9.70;29.70;;;;;;5054669;28;21008;-79
2024/03/05 05:53:53;;;;;;;29.17;18.53;;;9.70;91.40;;;;;;5052092;28;20463;-77
2024/03/05 05:56:23;;;;;;;33.47;19.80;;;9.70;99.90;;;;;;5048028;28;20495;-81
2024/03/05 05:58:51;;;;;;;33.83;20.50;;;9.70;99.90;;;;;;5052776;28;21025;-79
2024/03/05 06:01:21;;;;;;;31.67;20.47;;;9.70;99.90;;;;;;5054790;28;20455;-81
2024/03/05 06:03:50;;;;;;;30.53;19.60;;;9.80;68.40;;;;;;5057111;28;20487;-80
2024/03/05 06:06:19;;;;;;;34.43;20.23;;;9.70;99.90;;;;;;5055380;28;20463;-80
2024/03/05 06:08:48;;;;;;;33.87;21.63;;;9.80;1.00;;;;;;5057788;28;20883;-79
2024/03/05 06:11:16;;;;;;;36.30;21.10;;;9.70;99.90;;;;;;5053989;28;20448;-81
2024/03/05 06:13:46;;;;;;;35.33;20.80;;;9.70;71.80;;;;;;5052800;28;20440;-79
2024/03/05 06:16:16;;;;;;;29.27;20.60;;;9.70;99.90;;;;;;5056056;28;20463;-80
2024/03/05 06:18:44;;;;;;;35.30;22.27;;;9.70;99.90;;;;;;5056666;28;20845;-80
2024/03/05 06:21:13;;;;;;;36.10;21.30;;;9.70;99.90;;;;;;5054028;28;20455;-83
2024/03/05 06:23:41;;;;;;;32.47;22.10;;;9.70;99.90;;;;;;5056020;28;21011;-81
2024/03/05 06:26:09;;;;;;;36.00;20.90;;;9.70;25.10;;;;;;5054583;28;20467;-79
2024/03/05 06:28:38;;;;;;;36.80;23.70;;;9.70;99.90;;;;;;5055198;28;20457;-81
2024/03/05 06:31:09;;;;;;;31.97;21.07;;;9.70;99.90;;;;;;5054833;28;20452;-80
2024/03/05 06:33:37;;;;;;;36.63;23.60;;;9.70;99.90;;;;;;5052473;28;21095;-79
2024/03/05 06:36:06;;;;;;;42.20;24.43;;;9.70;99.90;;;;;;5054201;28;20483;-82
2024/03/05 06:38:36;;;;;;;36.50;22.50;;;9.60;99.90;;;;;;5055137;28;20477;-80
2024/03/05 06:41:04;;;;;;;39.97;24.37;;;9.60;99.90;;;;;;5049257;28;20460;-82
2024/03/05 06:43:36;;;;;;;34.67;21.67;;;9.70;99.90;;;;;;5050872;28;20573;-81
2024/03/05 06:46:09;;;;;;;41.83;24.47;;;9.70;99.90;;;;;;5054270;28;20556;-80
2024/03/05 06:48:47;;;;;;;40.57;24.00;;;9.80;99.90;;;;;;5056252;28;20869;-80
2024/03/05 06:51:26;;;;;;;37.17;23.00;;;9.70;99.90;;;;;;5056268;28;20448;-81
2024/03/05 06:56:41;;;;;;;41.60;24.90;;;9.70;99.90;;;;;;5053818;28;21093;-82
2024/03/05 06:59:10;;;;;;;45.90;23.00;;;9.60;99.90;;;;;;5056890;28;20483;-79
2024/03/05 07:01:40;;;;;;;40.67;25.07;;;9.60;99.90;;;;;;5056094;28;20456;-80
2024/03/05 07:04:09;;;;;;;41.03;24.30;;;9.60;1.00;;;;;;5053824;28;20447;-79
2024/03/05 07:06:37;;;;;;;45.87;24.17;;;9.60;1.00;;;;;;5055292;28;20487;-81
2024/03/05 07:09:05;;;;;;;37.53;23.90;;;9.60;99.90;;;;;;5058926;28;20452;-81
2024/03/05 07:11:34;;;;;;;40.77;24.77;;;9.60;1.00;;;;;;5055733;28;20465;-78
2024/03/05 07:14:02;;;;;;;42.03;24.90;;;9.60;1.00;;;;;;5055234;28;20443;-79
2024/03/05 07:16:32;;;;;;;38.50;22.83;;;9.70;1.00;;;;;;5057076;28;20471;-78
2024/03/05 07:19:03;;;;;;;37.40;22.43;;;9.70;1.00;;;;;;5058003;28;20477;-78
2024/03/05 07:21:31;;;;;;;38.70;24.83;;;9.70;99.90;;;;;;5055020;28;20459;-79
2024/03/05 07:23:59;;;;;;;44.43;23.80;;;9.70;99.90;;;;;;5061202;28;21180;-81
2024/03/05 07:26:28;;;;;;;44.50;25.40;;;9.70;99.90;;;;;;5055610;28;20470;-80
2024/03/05 07:28:57;;;;;;;36.60;22.33;;;9.70;1.00;;;;;;5055616;28;20455;-81
2024/03/05 07:31:28;;;;;;;39.03;23.27;;;9.70;99.90;;;;;;5055500;28;20448;-79
2024/03/05 07:33:58;;;;;;;38.33;23.60;;;9.70;99.90;;;;;;5057711;28;20455;-82
2024/03/05 07:36:27;;;;;;;37.03;19.93;;;9.80;99.90;;;;;;5058151;28;20552;-79
2024/03/05 07:38:56;;;;;;;31.20;20.17;;;9.80;99.90;;;;;;5057708;28;20471;-79
2024/03/05 07:41:24;;;;;;;38.23;22.30;;;9.80;99.90;;;;;;5058097;28;20529;-80
2024/03/05 07:44:02;;;;;;;38.47;20.43;;;9.80;99.90;;;;;;5052377;28;20555;-79
2024/03/05 07:46:32;;;;;;;32.63;19.80;;;9.80;99.90;;;;;;5056143;28;20467;-80
2024/03/05 07:49:00;;;;;;;37.47;22.50;;;9.80;99.90;;;;;;5058058;28;20988;-79
2024/03/05 07:51:30;;;;;;;33.37;19.07;;;9.90;99.90;;;;;;5054595;28;20470;-81
2024/03/05 07:54:12;;;;;;;28.27;19.37;;;9.90;9.50;;;;;;5057978;28;20474;-79
2024/03/05 07:56:41;;;;;;;29.33;18.67;;;9.80;42.00;;;;;;5059088;28;20470;-78
2024/03/05 07:59:10;;;;;;;32.70;18.73;;;9.80;52.00;;;;;;5056920;28;20613;-79
2024/03/05 08:01:38;;;;;;;29.60;19.67;;;9.90;99.90;;;;;;5054825;28;20470;-80
2024/03/05 08:04:07;;;;;;;31.67;19.47;;;9.80;99.90;;;;;;5058698;28;20656;-80
2024/03/05 08:06:37;;;;;;;31.90;20.10;;;9.80;99.90;;;;;;5053017;28;20468;-79
2024/03/05 08:09:06;;;;;;;27.00;17.33;;;9.80;99.90;;;;;;5052175;28;20456;-80
2024/03/05 08:11:36;;;;;;;27.17;18.93;;;9.90;99.90;;;;;;5052206;28;20444;-81
2024/03/05 08:14:07;;;;;;;32.17;20.30;;;9.90;1.00;;;;;;5054993;28;20471;-80
2024/03/05 08:16:37;;;;;;;32.40;19.77;;;9.90;45.20;;;;;;5058400;28;20478;-78
2024/03/05 08:19:07;;;;;;;32.13;20.20;;;9.80;9.30;;;;;;5054922;28;20475;-78
2024/03/05 08:21:36;;;;;;;29.23;17.73;;;9.90;99.90;;;;;;5057515;28;20449;-80
2024/03/05 08:24:06;;;;;;;33.20;19.60;;;9.90;99.90;;;;;;5055041;28;20443;-79
2024/03/05 08:26:34;;;;;;;32.03;19.27;;;9.80;99.90;;;;;;5058885;28;20493;-77
2024/03/05 08:29:03;;;;;;;25.93;17.67;;;9.90;99.90;;;;;;5055264;28;20439;-78
2024/03/05 08:31:31;;;;;;;26.10;16.30;;;9.90;62.70;;;;;;5057566;28;20813;-81
2024/03/05 08:34:02;;;;;;;25.17;16.70;;;9.90;99.90;;;;;;5056137;28;20452;-79
2024/03/05 08:36:36;;;;;;;24.73;15.23;;;9.90;1.00;;;;;;5052421;28;20511;-81
2024/03/05 08:39:17;;;;;;;23.90;15.97;;;10.00;1.00;;;;;;5055947;28;20569;-77
2024/03/05 08:41:46;;;;;;;23.30;13.83;;;10.00;1.00;;;;;;5057681;28;20534;-78
2024/03/05 08:44:15;;;;;;;22.07;13.80;;;9.90;51.50;;;;;;5051401;28;20451;-78
2024/03/05 08:46:44;;;;;;;20.50;13.90;;;9.90;2.70;;;;;;5059212;28;20506;-78
2024/03/05 08:49:12;;;;;;;18.93;13.63;;;10.00;6.00;;;;;;5060307;28;21030;-80
2024/03/05 08:51:40;;;;;;;21.63;14.27;;;9.90;1.00;;;;;;5056672;28;20464;-80
2024/03/05 08:54:10;;;;;;;20.07;13.80;;;9.90;1.00;;;;;;5056181;28;20482;-82
2024/03/05 08:56:41;;;;;;;16.60;11.90;;;9.90;1.00;;;;;;5055471;28;21096;-80
2024/03/05 08:59:09;;;;;;;17.60;12.50;;;10.00;1.00;;;;;;5054792;28;20491;-80
2024/03/05 09:01:38;;;;;;;17.50;11.97;;;10.00;1.00;;;;;;5058093;28;20559;-78
2024/03/05 09:04:06;;;;;;;14.50;12.20;;;9.90;1.00;;;;;;5057466;28;20448;-83
2024/03/05 09:06:35;;;;;;;21.40;13.47;;;9.90;1.00;;;;;;5057017;28;20499;-80
2024/03/05 09:09:03;;;;;;;15.87;13.33;;;9.90;1.00;;;;;;5059665;28;20447;-81
2024/03/05 09:11:34;;;;;;;17.70;12.70;;;9.90;1.00;;;;;;5056362;28;20447;-78
2024/03/05 09:14:03;;;;;;;13.47;11.57;;;10.00;1.00;;;;;;5058595;28;20450;-81
2024/03/05 09:16:32;;;;;;;10.63;9.27;;;9.90;99.90;;;;;;5060803;28;20550;-79
2024/03/05 09:19:00;;;;;;;11.50;8.97;;;9.90;99.90;;;;;;5053936;28;20451;-81
2024/03/05 09:21:30;;;;;;;9.63;8.23;;;9.90;99.90;;;;;;5052773;28;20555;-80
2024/03/05 09:23:59;;;;;;;11.33;9.47;;;9.90;99.90;;;;;;5055803;28;20438;-78
2024/03/05 09:26:28;;;;;;;10.67;7.83;;;9.90;99.90;;;;;;5052468;28;20471;-79
2024/03/05 09:28:58;;;;;;;9.77;8.77;;;9.90;99.90;;;;;;5054211;28;20455;-79
2024/03/05 09:31:26;;;;;;;10.10;7.87;;;9.90;99.90;;;;;;5056967;28;20459;-80
2024/03/05 09:33:55;;;;;;;10.90;7.80;;;9.90;99.90;;;;;;5053874;28;20538;-81
2024/03/05 09:36:24;;;;;;;8.13;7.27;;;9.90;99.90;;;;;;5054365;28;20533;-80
2024/03/05 09:38:52;;;;;;;9.60;7.33;;;9.80;99.90;;;;;;5058384;28;21061;-79
2024/03/05 09:41:20;;;;;;;10.03;8.47;;;9.80;99.90;;;;;;5055548;28;20543;-79
2024/03/05 09:43:50;;;;;;;10.30;8.80;;;9.80;99.90;;;;;;5058770;28;20458;-80
2024/03/05 09:46:21;;;;;;;8.93;7.47;;;9.80;99.90;;;;;;5059572;28;21342;-79
2024/03/05 09:48:50;;;;;;;9.47;8.13;;;9.80;99.90;;;;;;5055503;28;20451;-81
2024/03/05 09:51:21;;;;;;;7.40;6.67;;;9.80;99.90;;;;;;5057113;28;20521;-79
2024/03/05 09:53:52;;;;;;;6.80;6.20;;;9.80;99.90;;;;;;5056915;28;20465;-81
2024/03/05 09:56:21;;;;;;;7.90;7.10;;;9.80;99.90;;;;;;5055188;28;20536;-80
2024/03/05 09:58:49;;;;;;;6.90;5.90;;;9.80;99.90;;;;;;5054262;28;20447;-84
2024/03/05 10:01:17;;;;;;;9.00;7.53;;;9.90;99.90;;;;;;5059362;28;20470;-80
2024/03/05 10:03:49;;;;;;;6.47;5.87;;;9.90;99.90;;;;;;5056364;28;20456;-78
2024/03/05 10:06:17;;;;;;;7.60;6.80;;;9.90;99.90;;;;;;5057445;28;20472;-80
2024/03/05 10:08:46;;;;;;;8.13;7.33;;;9.90;99.90;;;;;;5055886;28;21009;-80
2024/03/05 10:11:14;;;;;;;8.57;7.63;;;9.90;99.90;;;;;;5054268;28;20510;-84
2024/03/05 10:13:42;;;;;;;11.30;7.37;;;10.00;99.90;;;;;;5059118;28;21026;-81
2024/03/05 10:16:18;;;;;;;8.57;7.77;;;10.00;99.90;;;;;;5060268;28;20494;-80
2024/03/05 10:18:49;;;;;;;9.77;8.80;;;10.00;1.00;;;;;;5058331;28;20465;-81
2024/03/05 10:21:20;;;;;;;9.73;8.73;;;10.10;99.90;;;;;;5055988;28;20574;-84
2024/03/05 10:23:56;;;;;;;10.03;8.37;;;10.10;99.90;;;;;;5057507;28;20458;-79
2024/03/05 10:26:27;;;;;;;13.30;9.63;;;10.10;99.90;;;;;;5056238;28;20486;-78
2024/03/05 10:28:58;;;;;;;11.43;9.10;;;10.10;99.90;;;;;;5057681;28;20493;-80
2024/03/05 10:31:28;;;;;;;10.50;8.87;;;10.10;99.90;;;;;;5054587;28;20444;-80
2024/03/05 10:33:58;;;;;;;10.23;8.70;;;10.10;99.90;;;;;;5058236;28;20507;-80
2024/03/05 10:36:31;;;;;;;16.00;10.00;;;10.20;99.90;;;;;;5057681;28;20467;-78
2024/03/05 10:38:59;;;;;;;10.83;8.50;;;10.10;99.90;;;;;;5058901;28;21175;-80
2024/03/05 10:41:32;;;;;;;10.03;8.37;;;10.20;99.90;;;;;;5061284;28;20572;-80
2024/03/05 10:44:15;;;;;;;10.13;7.97;;;10.30;99.90;;;;;;5062810;28;20900;-78
2024/03/05 10:46:46;;;;;;;8.80;7.90;;;10.30;99.90;;;;;;5059651;28;20475;-80
2024/03/05 10:49:19;;;;;;;7.67;7.03;;;10.40;99.90;;;;;;5059404;28;21529;-78
2024/03/05 10:51:49;;;;;;;7.10;6.60;;;10.30;99.90;;;;;;5053616;28;20930;-80
2024/03/05 10:54:19;;;;;;;7.97;7.23;;;10.30;99.90;;;;;;5059216;28;20518;-79
2024/03/05 10:56:49;;;;;;;8.10;7.30;;;10.30;99.90;;;;;;5047975;28;20558;-81
2024/03/05 10:59:29;;;;;;;8.77;7.10;;;10.30;99.90;;;;;;5059873;28;20482;-79
2024/03/05 11:02:00;;;;;;;8.30;7.37;;;10.30;77.10;;;;;;5056852;28;20565;-81
2024/03/05 11:04:32;;;;;;;7.13;6.47;;;10.30;50.30;;;;;;5055355;28;20451;-80
2024/03/05 11:07:06;;;;;;;6.80;6.20;;;10.30;37.80;;;;;;5059582;28;20544;-79
2024/03/05 11:09:36;;;;;;;5.87;5.47;;;10.30;33.90;;;;;;5057752;28;20463;-81
2024/03/05 11:12:09;;;;;;;7.17;6.67;;;10.30;37.50;;;;;;5054297;28;20941;-80
2024/03/05 11:14:38;;;;;;;6.27;5.87;;;10.30;45.20;;;;;;5059066;28;20520;-79
2024/03/05 11:17:09;;;;;;;6.00;5.60;;;10.20;32.10;;;;;;5058433;28;20476;-83
2024/03/05 11:19:43;;;;;;;5.30;4.90;;;10.20;51.40;;;;;;5058978;28;20462;-79
2024/03/05 11:22:23;;;;;;;7.27;6.77;;;10.20;6.50;;;;;;5058836;28;20505;-78
2024/03/05 11:24:55;;;;;;;7.07;6.50;;;10.20;16.00;;;;;;5055053;28;20470;-80
2024/03/05 11:27:25;;;;;;;6.80;6.30;;;10.20;53.60;;;;;;5058270;28;20482;-80
2024/03/05 11:30:05;;;;;;;6.73;5.83;;;10.20;19.70;;;;;;5059491;28;20547;-80
2024/03/05 11:32:35;;;;;;;6.53;6.00;;;10.20;97.10;;;;;;5058409;28;20489;-79
2024/03/05 11:35:05;;;;;;;6.83;6.23;;;10.20;99.90;;;;;;5060249;28;20501;-81
2024/03/05 11:37:47;;;;;;;7.13;5.40;;;10.20;99.90;;;;;;5058766;28;20923;-81
2024/03/05 11:40:18;;;;;;;6.30;5.70;;;10.20;99.90;;;;;;5057958;28;20453;-82
2024/03/05 11:42:47;;;;;;;5.20;4.40;;;10.20;99.90;;;;;;5060495;28;20960;-80
2024/03/05 11:45:43;;;;;;;3.80;3.60;;;10.20;99.90;;;;;;5057840;28;20451;-81
2024/03/05 11:48:13;;;;;;;5.93;3.33;;;10.20;99.90;;;;;;5056731;28;20459;-80
2024/03/05 11:50:44;;;;;;;3.50;3.30;;;10.20;99.90;;;;;;5062093;28;20454;-80
2024/03/05 11:53:12;;;;;;;3.53;3.33;;;10.20;35.60;;;;;;5061327;28;20487;-81
2024/03/05 11:55:42;;;;;;;3.73;3.53;;;10.20;20.10;;;;;;5057666;28;20468;-79
2024/03/05 11:58:11;;;;;;;3.77;3.50;;;10.20;14.60;;;;;;5059542;28;20505;-79
2024/03/05 12:00:39;;;;;;;4.03;3.83;;;10.20;22.10;;;;;;5057930;28;20486;-78
2024/03/05 12:03:08;;;;;;;3.87;3.57;;;10.20;53.00;;;;;;5058943;28;20544;-80
2024/03/05 12:05:44;;;;;;;4.10;3.80;;;10.10;99.90;;;;;;5050451;28;20446;-80
2024/03/05 12:08:12;;;;;;;5.27;4.43;;;10.20;45.70;;;;;;5059350;28;20549;-80
2024/03/05 12:10:41;;;;;;;5.03;4.57;;;10.10;2.70;;;;;;5059109;28;20952;-78
2024/03/05 12:13:10;;;;;;;3.57;3.37;;;10.10;35.70;;;;;;5055107;28;20456;-78
2024/03/05 12:15:40;;;;;;;4.57;4.17;;;10.10;84.50;;;;;;5056415;28;20452;-80
2024/03/05 12:18:10;;;;;;;3.47;3.17;;;10.10;99.90;;;;;;5060039;28;20981;-77
2024/03/05 12:20:41;;;;;;;3.03;2.83;;;10.10;99.90;;;;;;5059437;28;20466;-79
2024/03/05 12:23:11;;;;;;;3.03;2.93;;;10.10;99.90;;;;;;5056241;28;20529;-79
2024/03/05 12:25:39;;;;;;;2.60;2.50;;;10.10;99.90;;;;;;5058984;28;20466;-78
2024/03/05 12:28:08;;;;;;;2.37;2.27;;;10.10;99.90;;;;;;5060152;28;20466;-78
2024/03/05 12:30:36;;;;;;;2.93;2.73;;;10.20;99.90;;;;;;5055377;28;20549;-78
2024/03/05 12:33:06;;;;;;;2.73;2.53;;;10.30;99.90;;;;;;5059115;28;21163;-81
2024/03/05 12:35:34;;;;;;;2.50;2.40;;;10.40;99.90;;;;;;5058209;28;21113;-78
2024/03/05 12:38:04;;;;;;;2.03;1.93;;;10.50;1.00;;;;;;5060289;28;20474;-79
2024/03/05 12:40:34;;;;;;;2.20;2.10;;;10.60;1.00;;;;;;5058725;28;20529;-78
2024/03/05 12:43:10;;;;;;;3.10;2.87;;;10.60;1.00;;;;;;5058659;28;20834;-79
2024/03/05 12:45:38;;;;;;;2.77;2.67;;;10.60;1.00;;;;;;5057263;28;20976;-81
2024/03/05 12:48:08;;;;;;;2.33;2.20;;;10.50;1.00;;;;;;5055776;28;20475;-79
2024/03/05 12:50:39;;;;;;;2.93;2.63;;;10.50;1.00;;;;;;5053627;28;20485;-83
2024/03/05 12:53:08;;;;;;;2.80;2.70;;;10.40;1.00;;;;;;5058371;28;20460;-80
2024/03/05 12:55:38;;;;;;;3.20;3.10;;;10.40;1.00;;;;;;5058238;28;20455;-79